createdAt,value
2023-04-03T00:00:35.085Z,22.79
2023-04-03T00:01:34.556Z,22.85
2023-04-03T00:02:34.605Z,22.89
2023-04-03T00:03:34.535Z,22.93
2023-04-03T00:04:34.592Z,22.97
2023-04-03T00:05:34.526Z,23.02
2023-04-03T00:06:34.509Z,23.06
2023-04-03T00:07:34.502Z,23.11
2023-04-03T00:08:34.504Z,23.15
2023-04-03T00:09:34.491Z,23.19
2023-04-03T00:10:34.776Z,23.22
2023-04-03T00:11:34.471Z,23.26
2023-04-03T00:12:34.502Z,23.29
2023-04-03T00:13:34.456Z,23.31
2023-04-03T00:14:34.453Z,23.34
2023-04-03T00:15:34.447Z,23.37
2023-04-03T00:16:34.478Z,23.39
2023-04-03T00:17:34.472Z,23.42
2023-04-03T00:18:34.420Z,23.44
2023-04-03T00:19:34.414Z,23.47
2023-04-03T00:20:34.691Z,23.48
2023-04-03T00:21:34.401Z,23.50
2023-04-03T00:22:34.396Z,23.51
2023-04-03T00:23:34.395Z,23.53
2023-04-03T00:24:34.385Z,23.53
2023-04-03T00:25:34.383Z,23.54
2023-04-03T00:26:34.378Z,23.55
2023-04-03T00:27:34.362Z,23.57
2023-04-03T00:28:34.381Z,23.59
2023-04-03T00:29:34.347Z,23.60
2023-04-03T00:30:34.677Z,23.61
2023-04-03T00:31:34.385Z,23.61
2023-04-03T00:32:34.372Z,23.62
2023-04-03T00:33:34.326Z,23.62
2023-04-03T00:34:34.315Z,23.63
2023-04-03T00:35:34.384Z,23.64
2023-04-03T00:36:34.386Z,23.65
2023-04-03T00:37:34.289Z,23.65
2023-04-03T00:38:34.284Z,23.65
2023-04-03T00:39:34.277Z,23.65
2023-04-03T00:40:34.541Z,23.64
2023-04-03T00:41:34.267Z,23.65
2023-04-03T00:42:34.261Z,23.64
2023-04-03T00:43:34.244Z,23.66
2023-04-03T00:44:34.272Z,23.66
2023-04-03T00:45:34.249Z,23.67
2023-04-03T00:46:34.269Z,23.66
2023-04-03T00:47:34.246Z,23.66
2023-04-03T00:48:34.222Z,23.66
2023-04-03T00:49:34.205Z,23.66
2023-04-03T00:50:34.414Z,23.67
2023-04-03T00:51:34.194Z,23.66
2023-04-03T00:52:34.189Z,23.67
2023-04-03T00:53:34.193Z,23.66
2023-04-03T00:54:34.192Z,23.66
2023-04-03T00:55:34.240Z,23.67
2023-04-03T00:56:34.233Z,23.66
2023-04-03T00:57:34.322Z,23.66
2023-04-03T00:58:34.207Z,23.65
2023-04-03T00:59:34.218Z,23.66
2023-04-03T01:00:34.401Z,23.66
2023-04-03T01:01:34.265Z,23.66
2023-04-03T01:02:34.290Z,23.66
2023-04-03T01:03:34.279Z,23.67
2023-04-03T01:04:34.397Z,23.66
2023-04-03T01:05:34.305Z,23.65
2023-04-03T01:06:34.308Z,23.64
2023-04-03T01:07:34.315Z,23.65
2023-04-03T01:08:34.307Z,23.66
2023-04-03T01:09:34.318Z,23.66
2023-04-03T01:10:34.377Z,23.66
2023-04-03T01:11:34.360Z,23.66
2023-04-03T01:12:34.377Z,23.64
2023-04-03T01:13:34.399Z,23.64
2023-04-03T01:14:34.403Z,23.65
2023-04-03T01:15:34.417Z,23.64
2023-04-03T01:16:34.460Z,23.64
2023-04-03T01:17:34.437Z,23.64
2023-04-03T01:18:34.397Z,23.65
2023-04-03T01:19:34.396Z,23.64
2023-04-03T01:20:34.739Z,23.63
2023-04-03T01:21:34.418Z,23.63
2023-04-03T01:22:34.428Z,23.63
2023-04-03T01:23:34.451Z,23.64
2023-04-03T01:24:34.475Z,23.63
2023-04-03T01:25:34.498Z,23.64
2023-04-03T01:26:34.497Z,23.65
2023-04-03T01:27:34.521Z,23.65
2023-04-03T01:28:34.543Z,23.65
2023-04-03T01:29:34.560Z,23.64
2023-04-03T01:30:34.862Z,23.63
2023-04-03T01:31:34.638Z,23.63
2023-04-03T01:32:34.633Z,23.63
2023-04-03T01:33:34.583Z,23.63
2023-04-03T01:34:34.574Z,23.63
2023-04-03T01:35:34.577Z,23.62
2023-04-03T01:36:34.570Z,23.62
2023-04-03T01:37:34.578Z,23.63
2023-04-03T01:38:34.593Z,23.63
2023-04-03T01:39:34.614Z,23.63
2023-04-03T01:40:34.705Z,23.63
2023-04-03T01:41:34.629Z,23.64
2023-04-03T01:42:34.642Z,23.64
2023-04-03T01:43:34.676Z,23.63
2023-04-03T01:44:34.691Z,23.63
2023-04-03T01:45:34.719Z,23.63
2023-04-03T01:46:34.697Z,23.63
2023-04-03T01:47:34.704Z,23.63
2023-04-03T01:48:34.719Z,23.64
2023-04-03T01:49:34.729Z,23.63
2023-04-03T01:50:34.946Z,23.63
2023-04-03T01:51:34.772Z,23.63
2023-04-03T01:52:34.772Z,23.63
2023-04-03T01:53:34.775Z,23.63
2023-04-03T01:54:34.795Z,23.62
2023-04-03T01:55:34.765Z,23.62
2023-04-03T01:56:34.768Z,23.62
2023-04-03T01:57:34.852Z,23.62
2023-04-03T01:58:34.766Z,23.64
2023-04-03T01:59:34.787Z,23.64
2023-04-03T02:00:35.065Z,23.64
2023-04-03T02:01:34.868Z,23.65
2023-04-03T02:02:34.812Z,23.65
2023-04-03T02:03:34.796Z,23.65
2023-04-03T02:04:34.832Z,23.66
2023-04-03T02:05:34.782Z,23.66
2023-04-03T02:06:34.774Z,23.65
2023-04-03T02:07:34.795Z,23.64
2023-04-03T02:08:34.784Z,23.65
2023-04-03T02:09:34.799Z,23.65
2023-04-03T02:10:35.170Z,23.66
2023-04-03T02:11:34.804Z,23.66
2023-04-03T02:12:34.792Z,23.65
2023-04-03T02:13:34.796Z,23.65
2023-04-03T02:14:34.800Z,23.65
2023-04-03T02:15:34.788Z,23.66
2023-04-03T02:16:34.817Z,23.65
2023-04-03T02:17:34.800Z,23.64
2023-04-03T02:18:34.788Z,23.65
2023-04-03T02:19:34.786Z,23.65
2023-04-03T02:20:35.184Z,23.65
2023-04-03T02:21:34.782Z,23.66
2023-04-03T02:22:34.785Z,23.66
2023-04-03T02:23:34.794Z,23.65
2023-04-03T02:24:34.803Z,23.66
2023-04-03T02:25:36.138Z,23.66
2023-04-03T02:26:34.790Z,23.66
2023-04-03T02:27:34.781Z,23.67
2023-04-03T02:28:34.785Z,23.66
2023-04-03T02:29:34.775Z,23.67
2023-04-03T02:30:35.035Z,23.67
2023-04-03T02:31:34.778Z,23.66
2023-04-03T02:32:34.811Z,23.66
2023-04-03T02:33:34.752Z,23.65
2023-04-03T02:34:34.748Z,23.64
2023-04-03T02:35:34.744Z,23.64
2023-04-03T02:36:34.749Z,23.64
2023-04-03T02:37:34.713Z,23.65
2023-04-03T02:38:34.704Z,23.66
2023-04-03T02:39:34.701Z,23.66
2023-04-03T02:40:34.939Z,23.68
2023-04-03T02:41:34.683Z,23.67
2023-04-03T02:42:34.687Z,23.67
2023-04-03T02:43:34.674Z,23.67
2023-04-03T02:44:34.666Z,23.67
2023-04-03T02:45:34.657Z,23.67
2023-04-03T02:46:34.708Z,23.67
2023-04-03T02:47:34.670Z,23.67
2023-04-03T02:48:34.647Z,23.67
2023-04-03T02:49:34.627Z,23.67
2023-04-03T02:50:34.915Z,23.68
2023-04-03T02:51:34.619Z,23.69
2023-04-03T02:52:34.635Z,23.68
2023-04-03T02:53:34.605Z,23.67
2023-04-03T02:54:34.594Z,23.67
2023-04-03T02:55:34.591Z,23.67
2023-04-03T02:56:34.586Z,23.66
2023-04-03T02:57:34.624Z,23.66
2023-04-03T02:58:34.576Z,23.66
2023-04-03T02:59:34.571Z,23.67
2023-04-03T03:00:35.055Z,23.67
2023-04-03T03:01:34.611Z,23.67
2023-04-03T03:02:34.575Z,23.68
2023-04-03T03:03:34.540Z,23.67
2023-04-03T03:04:34.565Z,23.67
2023-04-03T03:05:34.531Z,23.67
2023-04-03T03:06:34.518Z,23.67
2023-04-03T03:07:34.510Z,23.66
2023-04-03T03:08:34.528Z,23.67
2023-04-03T03:09:34.502Z,23.67
2023-04-03T03:10:34.932Z,23.67
2023-04-03T03:11:34.496Z,23.67
2023-04-03T03:12:34.486Z,23.68
2023-04-03T03:13:34.473Z,23.68
2023-04-03T03:14:34.467Z,23.67
2023-04-03T03:15:34.471Z,23.66
2023-04-03T03:16:34.449Z,23.65
2023-04-03T03:17:34.474Z,23.66
2023-04-03T03:18:34.437Z,23.65
2023-04-03T03:19:34.437Z,23.66
2023-04-03T03:20:34.761Z,23.67
2023-04-03T03:21:34.436Z,23.66
2023-04-03T03:22:34.416Z,23.66
2023-04-03T03:23:34.403Z,23.65
2023-04-03T03:24:34.425Z,23.65
2023-04-03T03:25:34.545Z,23.65
2023-04-03T03:26:34.391Z,23.64
2023-04-03T03:27:34.394Z,23.63
2023-04-03T03:28:34.374Z,23.64
2023-04-03T03:29:34.378Z,23.64
2023-04-03T03:30:34.372Z,23.64
2023-04-03T03:31:34.384Z,23.65
2023-04-03T03:32:34.422Z,23.66
2023-04-03T03:33:34.341Z,23.66
2023-04-03T03:34:34.336Z,23.64
2023-04-03T03:35:34.442Z,23.65
2023-04-03T03:36:34.322Z,23.65
2023-04-03T03:37:34.340Z,23.66
2023-04-03T03:38:34.334Z,23.66
2023-04-03T03:39:34.335Z,23.67
2023-04-03T03:40:34.376Z,23.68
2023-04-03T03:41:34.350Z,23.68
2023-04-03T03:42:34.371Z,23.67
2023-04-03T03:43:34.391Z,23.66
2023-04-03T03:44:34.383Z,23.64
2023-04-03T03:45:34.406Z,23.65
2023-04-03T03:46:34.426Z,23.66
2023-04-03T03:47:34.441Z,23.65
2023-04-03T03:48:34.409Z,23.64
2023-04-03T03:49:34.400Z,23.65
2023-04-03T03:50:34.413Z,23.65
2023-04-03T03:51:34.407Z,23.66
2023-04-03T03:52:34.420Z,23.66
2023-04-03T03:53:34.452Z,23.65
2023-04-03T03:54:34.434Z,23.65
2023-04-03T03:55:34.880Z,23.64
2023-04-03T03:56:34.497Z,23.64
2023-04-03T03:57:34.543Z,23.65
2023-04-03T03:58:34.462Z,23.64
2023-04-03T03:59:34.457Z,23.64
2023-04-03T04:00:34.457Z,23.64
2023-04-03T04:01:34.542Z,23.65
2023-04-03T04:02:34.575Z,23.65
2023-04-03T04:03:34.563Z,23.65
2023-04-03T04:04:34.459Z,23.65
2023-04-03T04:05:34.942Z,23.64
2023-04-03T04:06:34.468Z,23.65
2023-04-03T04:07:34.464Z,23.64
2023-04-03T04:08:34.476Z,23.62
2023-04-03T04:09:34.481Z,23.62
2023-04-03T04:10:34.476Z,23.63
2023-04-03T04:11:34.498Z,23.63
2023-04-03T04:12:34.516Z,23.64
2023-04-03T04:13:34.547Z,23.63
2023-04-03T04:14:34.506Z,23.63
2023-04-03T04:15:34.668Z,23.64
2023-04-03T04:16:34.563Z,23.64
2023-04-03T04:17:34.564Z,23.64
2023-04-03T04:18:34.528Z,23.63
2023-04-03T04:19:34.518Z,23.64
2023-04-03T04:20:34.514Z,23.64
2023-04-03T04:21:34.506Z,23.64
2023-04-03T04:22:34.509Z,23.65
2023-04-03T04:23:34.496Z,23.65
2023-04-03T04:24:34.502Z,23.65
2023-04-03T04:25:34.827Z,23.65
2023-04-03T04:26:34.491Z,23.64
2023-04-03T04:27:34.483Z,23.64
2023-04-03T04:28:34.511Z,23.64
2023-04-03T04:29:34.481Z,23.63
2023-04-03T04:30:34.471Z,23.64
2023-04-03T04:31:34.525Z,23.64
2023-04-03T04:32:34.477Z,23.63
2023-04-03T04:33:34.461Z,23.63
2023-04-03T04:34:34.501Z,23.62
2023-04-03T04:35:34.519Z,23.62
2023-04-03T04:36:34.476Z,23.62
2023-04-03T04:37:34.444Z,23.61
2023-04-03T04:38:34.440Z,23.60
2023-04-03T04:39:34.447Z,23.61
2023-04-03T04:40:34.424Z,23.61
2023-04-03T04:41:34.428Z,23.61
2023-04-03T04:42:34.419Z,23.61
2023-04-03T04:43:34.424Z,23.60
2023-04-03T04:44:34.443Z,23.60
2023-04-03T04:45:34.439Z,23.60
2023-04-03T04:46:34.474Z,23.60
2023-04-03T04:47:34.450Z,23.60
2023-04-03T04:48:34.404Z,23.60
2023-04-03T04:49:34.399Z,23.61
2023-04-03T04:50:34.405Z,23.60
2023-04-03T04:51:41.101Z,23.60
2023-04-03T04:52:34.398Z,23.59
2023-04-03T04:53:34.387Z,23.59
2023-04-03T04:54:34.382Z,23.59
2023-04-03T04:55:34.656Z,23.59
2023-04-03T04:56:34.363Z,23.58
2023-04-03T04:57:34.443Z,23.58
2023-04-03T04:58:34.345Z,23.59
2023-04-03T04:59:34.346Z,23.60
2023-04-03T05:00:34.363Z,23.60
2023-04-03T05:01:34.360Z,23.61
2023-04-03T05:02:34.552Z,23.60
2023-04-03T05:03:34.316Z,23.62
2023-04-03T05:04:34.425Z,23.62
2023-04-03T05:05:34.319Z,23.61
2023-04-03T05:06:34.295Z,23.61
2023-04-03T05:07:34.290Z,23.60
2023-04-03T05:08:34.290Z,23.60
2023-04-03T05:09:34.286Z,23.62
2023-04-03T05:10:34.274Z,23.62
2023-04-03T05:11:34.263Z,23.62
2023-04-03T05:12:34.255Z,23.61
2023-04-03T05:13:34.249Z,23.61
2023-04-03T05:14:34.241Z,23.61
2023-04-03T05:15:34.237Z,23.60
2023-04-03T05:16:34.285Z,23.60
2023-04-03T05:17:34.250Z,23.62
2023-04-03T05:18:34.225Z,23.61
2023-04-03T05:19:34.216Z,23.62
2023-04-03T05:20:34.207Z,23.62
2023-04-03T05:21:34.208Z,23.63
2023-04-03T05:22:34.197Z,23.63
2023-04-03T05:23:34.186Z,23.63
2023-04-03T05:24:34.184Z,23.64
2023-04-03T05:25:34.185Z,23.64
2023-04-03T05:26:34.165Z,23.64
2023-04-03T05:27:34.153Z,23.64
2023-04-03T05:28:34.200Z,23.64
2023-04-03T05:29:34.138Z,23.64
2023-04-03T05:30:34.133Z,23.64
2023-04-03T05:31:34.214Z,23.65
2023-04-03T05:32:34.170Z,23.64
2023-04-03T05:33:34.111Z,23.65
2023-04-03T05:34:34.099Z,23.65
2023-04-03T05:35:34.195Z,23.66
2023-04-03T05:36:34.090Z,23.66
2023-04-03T05:37:34.083Z,23.65
2023-04-03T05:38:34.079Z,23.66
2023-04-03T05:39:34.064Z,23.66
2023-04-03T05:40:34.055Z,23.66
2023-04-03T05:41:34.055Z,23.66
2023-04-03T05:42:34.048Z,23.66
2023-04-03T05:43:34.040Z,23.66
2023-04-03T05:44:34.029Z,23.67
2023-04-03T05:45:34.071Z,23.67
2023-04-03T05:46:34.018Z,23.66
2023-04-03T05:47:34.055Z,23.65
2023-04-03T05:48:34.032Z,23.66
2023-04-03T05:49:33.998Z,23.64
2023-04-03T05:50:33.990Z,23.62
2023-04-03T05:51:33.979Z,23.61
2023-04-03T05:52:33.984Z,23.59
2023-04-03T05:53:33.982Z,23.60
2023-04-03T05:54:33.959Z,23.60
2023-04-03T05:55:33.967Z,23.60
2023-04-03T05:56:33.951Z,23.61
2023-04-03T05:57:34.132Z,23.60
2023-04-03T05:58:33.937Z,23.60
2023-04-03T05:59:33.925Z,23.59
2023-04-03T06:00:33.936Z,23.60
2023-04-03T06:01:33.920Z,23.61
2023-04-03T06:02:33.922Z,23.61
2023-04-03T06:03:34.016Z,23.62
2023-04-03T06:04:34.009Z,23.61
2023-04-03T06:05:33.888Z,23.61
2023-04-03T06:06:33.880Z,23.62
2023-04-03T06:07:33.882Z,23.62
2023-04-03T06:08:33.882Z,23.64
2023-04-03T06:09:33.858Z,23.63
2023-04-03T06:10:33.856Z,23.63
2023-04-03T06:11:33.845Z,23.63
2023-04-03T06:12:33.859Z,23.63
2023-04-03T06:13:33.832Z,23.63
2023-04-03T06:14:33.832Z,23.64
2023-04-03T06:15:33.822Z,23.64
2023-04-03T06:16:33.837Z,23.65
2023-04-03T06:17:33.817Z,23.66
2023-04-03T06:18:33.801Z,23.65
2023-04-03T06:19:33.789Z,23.65
2023-04-03T06:20:33.805Z,23.66
2023-04-03T06:21:33.781Z,23.66
2023-04-03T06:22:33.770Z,23.67
2023-04-03T06:23:33.785Z,23.66
2023-04-03T06:24:33.751Z,23.67
2023-04-03T06:25:33.747Z,23.66
2023-04-03T06:26:33.739Z,23.67
2023-04-03T06:27:33.739Z,23.68
2023-04-03T06:28:33.742Z,23.68
2023-04-03T06:29:33.732Z,23.69
2023-04-03T06:30:33.727Z,23.69
2023-04-03T06:31:33.837Z,23.69
2023-04-03T06:32:33.763Z,23.69
2023-04-03T06:33:33.696Z,23.69
2023-04-03T06:34:33.687Z,23.69
2023-04-03T06:35:33.699Z,23.69
2023-04-03T06:36:33.698Z,23.69
2023-04-03T06:37:33.669Z,23.70
2023-04-03T06:38:33.661Z,23.70
2023-04-03T06:39:33.657Z,23.70
2023-04-03T06:40:33.645Z,23.71
2023-04-03T06:41:34.799Z,23.71
2023-04-03T06:42:33.883Z,23.71
2023-04-03T06:43:34.793Z,23.72
2023-04-03T06:44:33.919Z,23.71
2023-04-03T06:45:33.914Z,23.71
2023-04-03T06:46:33.929Z,23.71
2023-04-03T06:47:33.960Z,23.71
2023-04-03T06:48:33.914Z,23.72
2023-04-03T06:49:33.918Z,23.72
2023-04-03T06:50:33.921Z,23.72
2023-04-03T06:51:33.935Z,23.71
2023-04-03T06:52:33.973Z,23.72
2023-04-03T06:53:33.951Z,23.72
2023-04-03T06:54:33.957Z,23.72
2023-04-03T06:55:33.966Z,23.71
2023-04-03T06:56:34.016Z,23.71
2023-04-03T06:57:34.080Z,23.73
2023-04-03T06:58:33.982Z,23.73
2023-04-03T06:59:33.989Z,23.73
2023-04-03T07:00:33.997Z,23.72
2023-04-03T07:01:34.075Z,23.71
2023-04-03T07:02:34.091Z,23.72
2023-04-03T07:03:35.543Z,23.73
2023-04-03T07:04:34.189Z,23.72
2023-04-03T07:05:34.141Z,23.73
2023-04-03T07:06:34.145Z,23.73
2023-04-03T07:07:34.163Z,23.74
2023-04-03T07:08:34.200Z,23.74
2023-04-03T07:09:34.199Z,23.73
2023-04-03T07:10:34.202Z,23.74
2023-04-03T07:11:34.358Z,23.73
2023-04-03T07:12:34.235Z,23.73
2023-04-03T07:13:34.243Z,23.75
2023-04-03T07:14:34.273Z,23.74
2023-04-03T07:15:34.304Z,23.74
2023-04-03T07:16:34.383Z,23.74
2023-04-03T07:17:34.398Z,23.74
2023-04-03T07:18:34.375Z,23.74
2023-04-03T07:19:34.384Z,23.74
2023-04-03T07:20:34.389Z,23.74
2023-04-03T07:21:34.421Z,23.74
2023-04-03T07:22:34.407Z,23.74
2023-04-03T07:23:34.436Z,23.74
2023-04-03T07:24:34.462Z,23.74
2023-04-03T07:25:34.441Z,23.74
2023-04-03T07:26:34.473Z,23.74
2023-04-03T07:27:34.508Z,23.74
2023-04-03T07:28:34.569Z,23.75
2023-04-03T07:29:34.600Z,23.75
2023-04-03T07:30:34.640Z,23.76
2023-04-03T07:31:34.708Z,23.75
2023-04-03T07:32:34.731Z,23.75
2023-04-03T07:33:34.755Z,23.75
2023-04-03T07:34:34.759Z,23.75
2023-04-03T07:35:34.857Z,23.76
2023-04-03T07:36:34.838Z,23.75
2023-04-03T07:37:34.866Z,23.76
2023-04-03T07:38:34.911Z,23.75
2023-04-03T07:39:34.963Z,23.75
2023-04-03T07:40:35.047Z,23.75
2023-04-03T07:41:35.061Z,23.76
2023-04-03T07:42:35.116Z,23.75
2023-04-03T07:43:35.131Z,23.75
2023-04-03T07:44:35.158Z,23.75
2023-04-03T07:45:35.234Z,23.76
2023-04-03T07:46:35.225Z,23.75
2023-04-03T07:47:35.244Z,23.76
2023-04-03T07:48:35.291Z,23.74
2023-04-03T07:49:35.306Z,23.73
2023-04-03T07:50:35.330Z,23.74
2023-04-03T07:51:35.371Z,23.75
2023-04-03T07:52:35.377Z,23.75
2023-04-03T07:53:35.422Z,23.75
2023-04-03T07:54:35.423Z,23.76
2023-04-03T07:55:35.496Z,23.75
2023-04-03T07:56:35.543Z,23.75
2023-04-03T07:57:35.611Z,23.76
2023-04-03T07:58:35.528Z,23.76
2023-04-03T07:59:35.520Z,23.76
2023-04-03T08:00:35.526Z,23.76
2023-04-03T08:01:35.554Z,23.76
2023-04-03T08:02:35.588Z,23.76
2023-04-03T08:03:35.786Z,23.76
2023-04-03T08:04:35.678Z,23.75
2023-04-03T08:05:35.982Z,23.75
2023-04-03T08:06:45.753Z,23.75
2023-04-03T08:07:35.722Z,23.75
2023-04-03T08:08:35.704Z,23.75
2023-04-03T08:09:35.700Z,23.76
2023-04-03T08:10:35.696Z,23.77
2023-04-03T08:11:35.693Z,23.77
2023-04-03T08:12:35.713Z,23.77
2023-04-03T08:13:35.677Z,23.78
2023-04-03T08:14:35.676Z,23.78
2023-04-03T08:15:35.887Z,23.78
2023-04-03T08:16:35.677Z,23.79
2023-04-03T08:17:35.690Z,23.79
2023-04-03T08:18:35.639Z,23.79
2023-04-03T08:19:35.637Z,23.78
2023-04-03T08:20:35.676Z,23.78
2023-04-03T08:21:35.612Z,23.78
2023-04-03T08:22:35.617Z,23.78
2023-04-03T08:23:35.600Z,23.78
2023-04-03T08:24:36.450Z,23.77
2023-04-03T08:25:35.770Z,23.77
2023-04-03T08:26:35.581Z,23.77
2023-04-03T08:27:35.583Z,23.77
2023-04-03T08:28:35.604Z,23.77
2023-04-03T08:29:35.560Z,23.78
2023-04-03T08:30:35.581Z,23.77
2023-04-03T08:31:35.550Z,23.77
2023-04-03T08:32:35.570Z,23.77
2023-04-03T08:33:35.542Z,23.78
2023-04-03T08:34:35.531Z,23.79
2023-04-03T08:35:38.067Z,23.79
2023-04-03T08:36:35.518Z,23.80
2023-04-03T08:37:35.519Z,23.79
2023-04-03T08:38:35.511Z,23.79
2023-04-03T08:39:35.500Z,23.79
2023-04-03T08:40:35.501Z,23.81
2023-04-03T08:41:35.499Z,23.80
2023-04-03T08:42:35.486Z,23.80
2023-04-03T08:43:35.488Z,23.80
2023-04-03T08:44:35.586Z,23.79
2023-04-03T08:45:35.594Z,23.80
2023-04-03T08:46:35.474Z,23.80
2023-04-03T08:47:35.459Z,23.79
2023-04-03T08:48:35.455Z,23.80
2023-04-03T08:49:35.463Z,23.80
2023-04-03T08:51:34.485Z,23.80
2023-04-03T08:52:35.413Z,23.79
2023-04-03T08:53:35.419Z,23.79
2023-04-03T08:54:35.597Z,23.79
2023-04-03T08:55:35.467Z,23.79
2023-04-03T08:56:36.075Z,23.80
2023-04-03T08:57:35.455Z,23.79
2023-04-03T08:58:35.370Z,23.80
2023-04-03T08:59:35.418Z,23.79
2023-04-03T09:00:35.606Z,23.80
2023-04-03T09:01:35.560Z,23.80
2023-04-03T09:02:35.597Z,23.81
2023-04-03T09:03:35.662Z,23.80
2023-04-03T09:04:35.673Z,23.80
2023-04-03T09:05:35.869Z,23.79
2023-04-03T09:06:35.749Z,23.80
2023-04-03T09:07:35.783Z,23.80
2023-04-03T09:08:35.833Z,23.80
2023-04-03T09:09:35.883Z,23.80
2023-04-03T09:10:36.182Z,23.79
2023-04-03T09:11:35.991Z,23.80
2023-04-03T09:12:36.039Z,23.79
2023-04-03T09:13:36.107Z,23.80
2023-04-03T09:14:36.132Z,23.80
2023-04-03T09:15:39.549Z,23.80
2023-04-03T09:16:36.281Z,23.80
2023-04-03T09:17:36.217Z,23.80
2023-04-03T09:18:36.151Z,23.81
2023-04-03T09:19:36.200Z,23.80
2023-04-03T09:20:36.405Z,23.80
2023-04-03T09:21:36.132Z,23.79
2023-04-03T09:22:41.896Z,23.80
2023-04-03T09:23:36.125Z,23.79
2023-04-03T09:24:36.117Z,23.80
2023-04-03T09:25:36.105Z,23.80
2023-04-03T09:26:36.099Z,23.81
2023-04-03T09:27:36.161Z,23.79
2023-04-03T09:28:42.885Z,23.79
2023-04-03T09:29:36.093Z,23.78
2023-04-03T09:30:36.348Z,23.79
2023-04-03T09:31:36.119Z,23.80
2023-04-03T09:32:36.224Z,23.79
2023-04-03T09:33:36.058Z,23.79
2023-04-03T09:34:36.057Z,23.80
2023-04-03T09:35:47.558Z,23.80
2023-04-03T09:36:36.036Z,23.80
2023-04-03T09:37:36.027Z,23.80
2023-04-03T09:38:36.023Z,23.79
2023-04-03T09:39:36.021Z,23.80
2023-04-03T09:40:36.605Z,23.79
2023-04-03T09:41:36.010Z,23.80
2023-04-03T09:42:36.004Z,23.79
2023-04-03T09:43:35.988Z,23.80
2023-04-03T09:44:35.987Z,23.80
2023-04-03T09:45:35.983Z,23.80
2023-04-03T09:46:36.078Z,23.79
2023-04-03T09:47:35.967Z,23.80
2023-04-03T09:48:36.081Z,23.80
2023-04-03T09:49:35.953Z,23.80
2023-04-03T09:50:36.287Z,23.79
2023-04-03T09:51:36.593Z,23.79
2023-04-03T09:52:36.582Z,23.79
2023-04-03T09:53:36.167Z,23.79
2023-04-03T09:54:36.228Z,23.79
2023-04-03T09:55:36.266Z,23.79
2023-04-03T09:56:36.329Z,23.78
2023-04-03T09:57:36.448Z,23.77
2023-04-03T09:58:49.021Z,23.78
2023-04-03T09:59:36.397Z,23.77
2023-04-03T10:00:36.614Z,23.77
2023-04-03T10:01:36.489Z,23.77
2023-04-03T10:02:36.412Z,23.77
2023-04-03T10:03:36.379Z,23.78
2023-04-03T10:04:36.562Z,23.78
2023-04-03T10:05:36.424Z,23.78
2023-04-03T10:06:36.353Z,23.78
2023-04-03T10:07:36.342Z,23.78
2023-04-03T10:08:36.346Z,23.77
2023-04-03T10:09:36.333Z,23.76
2023-04-03T10:10:36.585Z,23.77
2023-04-03T10:11:36.323Z,23.76
2023-04-03T10:12:36.305Z,23.77
2023-04-03T10:13:41.960Z,23.77
2023-04-03T10:14:36.307Z,23.77
2023-04-03T10:15:36.285Z,23.77
2023-04-03T10:16:36.356Z,23.78
2023-04-03T10:17:36.322Z,23.78
2023-04-03T10:18:36.270Z,23.78
2023-04-03T10:19:36.257Z,23.77
2023-04-03T10:20:36.495Z,23.78
2023-04-03T10:21:36.242Z,23.77
2023-04-03T10:22:36.237Z,23.77
2023-04-03T10:23:36.235Z,23.77
2023-04-03T10:24:36.220Z,23.77
2023-04-03T10:25:36.218Z,23.77
2023-04-03T10:26:36.218Z,23.77
2023-04-03T10:27:36.198Z,23.77
2023-04-03T10:28:36.199Z,23.77
2023-04-03T10:29:36.193Z,23.77
2023-04-03T10:30:36.524Z,23.76
2023-04-03T10:31:36.249Z,23.75
2023-04-03T10:32:36.186Z,23.75
2023-04-03T10:33:36.164Z,23.75
2023-04-03T10:34:36.157Z,23.74
2023-04-03T10:35:36.181Z,23.75
2023-04-03T10:36:36.276Z,23.74
2023-04-03T10:37:36.131Z,23.74
2023-04-03T10:38:36.131Z,23.76
2023-04-03T10:39:36.138Z,23.74
2023-04-03T10:40:36.417Z,23.74
2023-04-03T10:41:36.139Z,23.73
2023-04-03T10:42:36.166Z,23.73
2023-04-03T10:43:36.189Z,23.73
2023-04-03T10:44:36.210Z,23.72
2023-04-03T10:45:36.233Z,23.73
2023-04-03T10:46:36.316Z,23.74
2023-04-03T10:47:39.393Z,23.73
2023-04-03T10:48:36.324Z,23.73
2023-04-03T10:49:36.560Z,23.72
2023-04-03T10:50:36.579Z,23.73
2023-04-03T10:51:36.288Z,23.73
2023-04-03T10:52:36.406Z,23.73
2023-04-03T10:53:36.283Z,23.73
2023-04-03T10:54:36.271Z,23.73
2023-04-03T10:55:36.266Z,23.73
2023-04-03T10:56:36.254Z,23.71
2023-04-03T10:57:36.293Z,23.71
2023-04-03T10:58:36.249Z,23.71
2023-04-03T10:59:36.239Z,23.71
2023-04-03T11:00:36.577Z,23.71
2023-04-03T11:01:36.286Z,23.72
2023-04-03T11:02:36.314Z,23.71
2023-04-03T11:03:36.265Z,23.71
2023-04-03T11:04:36.213Z,23.71
2023-04-03T11:05:36.490Z,23.70
2023-04-03T11:06:36.306Z,23.71
2023-04-03T11:07:36.369Z,23.71
2023-04-03T11:08:36.563Z,23.71
2023-04-03T11:09:36.461Z,23.70
2023-04-03T11:10:36.518Z,23.71
2023-04-03T11:11:36.543Z,23.70
2023-04-03T11:12:36.583Z,23.70
2023-04-03T11:13:36.614Z,23.70
2023-04-03T11:14:36.650Z,23.69
2023-04-03T11:15:36.944Z,23.70
2023-04-03T11:16:43.581Z,23.72
2023-04-03T11:17:36.815Z,23.71
2023-04-03T11:18:36.725Z,23.71
2023-04-03T11:19:36.722Z,23.72
2023-04-03T11:20:37.131Z,23.73
2023-04-03T11:21:36.730Z,23.74
2023-04-03T11:22:36.709Z,23.74
2023-04-03T11:23:48.938Z,23.73
2023-04-03T11:24:36.828Z,23.71
2023-04-03T11:25:36.917Z,23.74
2023-04-03T11:26:36.673Z,23.74
2023-04-03T11:27:36.669Z,23.74
2023-04-03T11:28:36.671Z,23.75
2023-04-03T11:29:36.670Z,23.75
2023-04-03T11:30:36.656Z,23.74
2023-04-03T11:31:36.671Z,23.73
2023-04-03T11:32:36.686Z,23.74
2023-04-03T11:33:36.628Z,23.74
2023-04-03T11:34:36.618Z,23.73
2023-04-03T11:35:36.899Z,23.73
2023-04-03T11:36:36.622Z,23.73
2023-04-03T11:37:36.615Z,23.73
2023-04-03T11:38:36.598Z,23.73
2023-04-03T11:39:36.587Z,23.72
2023-04-03T11:40:36.703Z,23.72
2023-04-03T11:41:36.622Z,23.73
2023-04-03T11:42:36.661Z,23.72
2023-04-03T11:43:36.559Z,23.72
2023-04-03T11:44:36.546Z,23.74
2023-04-03T11:45:37.133Z,23.73
2023-04-03T11:46:36.588Z,23.73
2023-04-03T11:47:36.586Z,23.73
2023-04-03T11:48:36.606Z,23.73
2023-04-03T11:49:37.644Z,23.74
2023-04-03T11:50:36.691Z,23.74
2023-04-03T11:51:36.733Z,23.74
2023-04-03T11:52:36.790Z,23.72
2023-04-03T11:53:36.837Z,23.72
2023-04-03T11:54:44.520Z,23.72
2023-04-03T11:55:37.155Z,23.72
2023-04-03T11:56:36.997Z,23.73
2023-04-03T11:57:36.881Z,23.73
2023-04-03T11:58:36.843Z,23.74
2023-04-03T11:59:36.839Z,23.73
2023-04-03T12:00:36.824Z,23.72
2023-04-03T12:01:36.831Z,23.73
2023-04-03T12:02:51.028Z,23.74
2023-04-03T12:03:36.858Z,23.75
2023-04-03T12:04:36.811Z,23.75
2023-04-03T12:05:36.945Z,23.74
2023-04-03T12:06:36.815Z,23.74
2023-04-03T12:07:36.780Z,23.74
2023-04-03T12:08:36.798Z,23.75
2023-04-03T12:09:36.766Z,23.76
2023-04-03T12:10:36.751Z,23.76
2023-04-03T12:11:36.806Z,23.75
2023-04-03T12:12:36.867Z,23.76
2023-04-03T12:13:36.740Z,23.76
2023-04-03T12:14:36.731Z,23.76
2023-04-03T12:15:36.884Z,23.77
2023-04-03T12:16:36.737Z,23.76
2023-04-03T12:17:36.722Z,23.76
2023-04-03T12:18:36.699Z,23.76
2023-04-03T12:20:35.687Z,23.75
2023-04-03T12:21:36.675Z,23.75
2023-04-03T12:22:36.675Z,23.75
2023-04-03T12:23:36.666Z,23.75
2023-04-03T12:24:36.657Z,23.77
2023-04-03T12:25:36.872Z,23.76
2023-04-03T12:26:45.943Z,23.74
2023-04-03T12:27:36.679Z,23.74
2023-04-03T12:28:36.763Z,23.74
2023-04-03T12:29:37.465Z,23.74
2023-04-03T12:30:36.628Z,23.74
2023-04-03T12:31:36.613Z,23.75
2023-04-03T12:32:36.669Z,23.75
2023-04-03T12:33:36.643Z,23.76
2023-04-03T12:34:36.595Z,23.76
2023-04-03T12:35:36.943Z,23.77
2023-04-03T12:36:36.585Z,23.77
2023-04-03T12:37:36.595Z,23.78
2023-04-03T12:38:36.566Z,23.78
2023-04-03T12:39:36.561Z,23.79
2023-04-03T12:40:36.562Z,23.78
2023-04-03T12:41:36.555Z,23.78
2023-04-03T12:42:36.542Z,23.79
2023-04-03T12:43:36.544Z,23.79
2023-04-03T12:44:36.655Z,23.77
2023-04-03T12:45:36.780Z,23.78
2023-04-03T12:46:36.601Z,23.77
2023-04-03T12:47:36.525Z,23.77
2023-04-03T12:48:36.505Z,23.77
2023-04-03T12:49:36.508Z,23.76
2023-04-03T12:50:36.493Z,23.75
2023-04-03T12:51:36.499Z,23.75
2023-04-03T12:52:36.482Z,23.74
2023-04-03T12:53:36.497Z,23.75
2023-04-03T12:54:36.521Z,23.75